Fort Saint John, Canada
Current Conditions -  °F | °C
As of 6:00 PM on Monday 26 Jan 2015 (Local Time) from CYXJ Reporting Station
Overcast Overcast  
Wind Chill: 25°   Ceiling: 13000
Heat Index: 34°   Visibility: 15mi
Dew Point: 25°   Wind: 12mph
Humidity: 70%   Direction: 350°N
Pressure: 29.76"   Gusts: NA
Location:  56.25°N, 120.85°W
Report Text: CYXJ 270100Z 35010KT 15SM OVC130 01/M04 A2976 RMK AC8 SLP107
Loading
Personal Weather Stations






























Interactive Weather Map New forecast layout! Learn more

10-Day Weather Forecast

Advertisements
Track Severe Weather on mobile